Time;durP1;ratioP1;P1;durP2;ratioP2;P2;SDS_P1;SDS_P2;PMS_P1;PMS_P2;Temp;Humidity;BMP_temperature;BMP_pressure;BME280_temperature;BME280_humidity;BME280_pressure;Samples;Min_cycle;Max_cycle;Signal;HPM_P1;HPM_P2
2022/06/05 00:00:42;;;;;;;;;;;19.00;99.90;;;;;;5031038;28;19924;-78
2022/06/05 00:03:20;;;;;;;;;;;19.00;99.90;;;;;;5037846;28;20037;-78
2022/06/05 00:05:50;;;;;;;;;;;18.90;99.90;;;;;;5044257;28;19958;-77
2022/06/05 00:08:19;;;;;;;;;;;18.90;99.90;;;;;;5039318;28;20105;-78
2022/06/05 00:10:52;;;;;;;;;;;18.80;99.90;;;;;;5018280;28;20003;-77
2022/06/05 00:13:22;;;;;;;;;;;18.70;99.90;;;;;;5035597;28;19929;-79
2022/06/05 00:15:49;;;;;;;;;;;18.60;99.90;;;;;;5036365;28;19936;-79
2022/06/05 00:18:16;;;;;;;;;;;18.60;99.90;;;;;;5036831;28;19925;-76
2022/06/05 00:20:44;;;;;;;;;;;18.60;99.90;;;;;;5057528;28;20409;-79
2022/06/05 00:23:11;;;;;;;;;;;18.50;99.90;;;;;;5057706;28;19924;-79
2022/06/05 00:25:42;;;;;;;;;;;18.50;99.90;;;;;;5056940;28;19920;-79
2022/06/05 00:28:14;;;;;;;;;;;18.40;99.90;;;;;;5054795;28;19921;-79
2022/06/05 00:30:45;;;;;;;;;;;18.30;99.90;;;;;;5037835;28;19928;-79
2022/06/05 00:33:15;;;;;;;;;;;18.30;99.90;;;;;;5032929;28;19932;-79
2022/06/05 00:35:44;;;;;;;;;;;18.30;99.90;;;;;;5051989;28;20439;-79
2022/06/05 00:38:15;;;;;;;;;;;18.20;99.90;;;;;;5038558;28;19982;-79
2022/06/05 00:40:49;;;;;;;;;;;18.20;99.90;;;;;;5039397;28;19951;-80
2022/06/05 00:43:19;;;;;;;;;;;18.20;99.90;;;;;;5039944;28;19932;-79
2022/06/05 00:45:47;;;;;;;;;;;18.20;99.90;;;;;;5042439;28;19912;-78
2022/06/05 00:48:14;;;;;;;;;;;18.10;99.90;;;;;;5041278;28;19967;-78
2022/06/05 00:50:42;;;;;;;;;;;18.00;99.90;;;;;;5032967;28;19929;-79
2022/06/05 00:53:10;;;;;;;;;;;18.00;99.90;;;;;;5042837;28;19943;-76
2022/06/05 00:55:38;;;;;;;;;;;18.00;99.90;;;;;;5051807;28;19924;-77
2022/06/05 00:58:07;;;;;;;;;;;18.00;99.90;;;;;;5037239;28;19963;-77
2022/06/05 01:00:38;;;;;;;;;;;17.90;99.90;;;;;;5056161;28;19936;-78
2022/06/05 01:03:07;;;;;;;;;;;17.90;99.90;;;;;;5039629;28;20367;-78
2022/06/05 01:05:34;;;;;;;;;;;17.80;99.90;;;;;;5041752;28;19924;-78
2022/06/05 01:08:01;;;;;;;;;;;17.80;99.90;;;;;;5041329;28;20288;-79
2022/06/05 01:10:36;;;;;;;;;;;17.70;99.90;;;;;;5039434;28;20319;-76
2022/06/05 01:13:06;;;;;;;;;;;17.70;99.90;;;;;;5038272;28;19920;-78
2022/06/05 01:15:36;;;;;;;;;;;17.60;99.90;;;;;;5039213;28;19990;-78
2022/06/05 01:18:08;;;;;;;;;;;17.60;99.90;;;;;;5058379;28;20546;-78
2022/06/05 01:20:40;;;;;;;;;;;17.50;99.90;;;;;;5040804;28;19920;-79
2022/06/05 01:23:23;;;;;;;;;;;17.50;99.90;;;;;;5039486;28;19951;-78
2022/06/05 01:25:56;;;;;;;;;;;17.40;99.90;;;;;;5040849;28;19921;-78
2022/06/05 01:28:24;;;;;;;;;;;17.40;99.90;;;;;;5040759;28;19924;-79
2022/06/05 01:30:54;;;;;;;;;;;17.30;99.90;;;;;;5039370;28;20011;-78
2022/06/05 01:33:23;;;;;;;;;;;17.30;99.90;;;;;;5039669;28;19921;-78
2022/06/05 01:35:58;;;;;;;;;;;17.30;99.90;;;;;;5056269;28;19944;-80
2022/06/05 01:38:29;;;;;;;;;;;17.20;99.90;;;;;;5074718;28;19946;-80
2022/06/05 01:41:00;;;;;;;;;;;17.20;99.90;;;;;;5066803;28;19920;-80
2022/06/05 01:43:29;;;;;;;;;;;17.10;99.90;;;;;;5041229;28;19929;-80
2022/06/05 01:45:58;;;;;;;;;;;17.10;99.90;;;;;;5056915;28;19909;-79
2022/06/05 01:48:27;;;;;;;;;;;17.10;99.90;;;;;;5032074;28;19932;-78
2022/06/05 01:50:55;;;;;;;;;;;17.00;99.90;;;;;;5034159;28;19921;-78
2022/06/05 01:53:23;;;;;;;;;;;17.00;99.90;;;;;;5042706;28;19920;-80
2022/06/05 01:55:54;;;;;;;;;;;17.00;99.90;;;;;;5061349;28;19920;-79
2022/06/05 01:58:24;;;;;;;;;;;16.90;99.90;;;;;;5041963;28;20381;-79
2022/06/05 02:00:57;;;;;;;;;;;16.90;99.90;;;;;;5040943;28;19927;-79
2022/06/05 02:03:27;;;;;;;;;;;16.80;99.90;;;;;;5040740;28;20008;-79
2022/06/05 02:05:57;;;;;;;;;;;16.90;99.90;;;;;;5039673;28;19921;-80
2022/06/05 02:08:27;;;;;;;;;;;16.90;99.90;;;;;;5038710;28;19940;-79
2022/06/05 02:10:57;;;;;;;;;;;16.80;99.90;;;;;;5035647;28;19927;-79
2022/06/05 02:13:26;;;;;;;;;;;16.80;99.90;;;;;;5052308;28;19931;-78
2022/06/05 02:15:53;;;;;;;;;;;16.80;99.90;;;;;;5049598;28;20360;-77
2022/06/05 02:18:20;;;;;;;;;;;16.70;99.90;;;;;;5034994;28;19925;-78
2022/06/05 02:20:48;;;;;;;;;;;16.70;99.90;;;;;;5033913;28;19915;-77
2022/06/05 02:23:16;;;;;;;;;;;16.70;99.90;;;;;;5053419;28;19925;-77
2022/06/05 02:25:43;;;;;;;;;;;16.70;99.90;;;;;;5048744;28;20285;-78
2022/06/05 02:28:12;;;;;;;;;;;16.60;99.90;;;;;;5052882;28;19924;-78
2022/06/05 02:30:43;;;;;;;;;;;16.60;99.90;;;;;;5050162;28;20031;-77
2022/06/05 02:33:13;;;;;;;;;;;16.60;99.90;;;;;;5040700;28;20046;-77
2022/06/05 02:35:45;;;;;;;;;;;16.50;99.90;;;;;;5033184;28;19921;-77
2022/06/05 02:38:17;;;;;;;;;;;16.50;99.90;;;;;;5022758;28;19963;-77
2022/06/05 02:40:48;;;;;;;;;;;16.40;99.90;;;;;;5050379;28;19928;-77
2022/06/05 02:43:18;;;;;;;;;;;16.50;99.90;;;;;;5054239;28;20590;-77
2022/06/05 02:45:51;;;;;;;;;;;16.40;99.90;;;;;;5036240;28;19924;-78
2022/06/05 02:48:21;;;;;;;;;;;16.40;99.90;;;;;;5032595;28;19925;-78
2022/06/05 02:50:50;;;;;;;;;;;16.40;99.90;;;;;;5025668;28;20237;-78
2022/06/05 02:53:18;;;;;;;;;;;16.30;99.90;;;;;;5028149;28;19924;-76
2022/06/05 02:55:45;;;;;;;;;;;16.30;99.90;;;;;;5023575;28;19929;-76
2022/06/05 02:58:13;;;;;;;;;;;16.30;99.90;;;;;;5045517;28;19960;-76
2022/06/05 03:03:27;;;;;;;;;;;16.30;99.90;;;;;;5048097;28;20648;-76
2022/06/05 03:03:28;;;;;;;;;;;16.30;99.90;;;;;;5050259;28;19921;-76
2022/06/05 03:05:55;;;;;;;;;;;16.20;99.90;;;;;;5040835;28;20476;-75
2022/06/05 03:08:23;;;;;;;;;;;16.20;99.90;;;;;;5042977;28;20474;-76
2022/06/05 03:10:50;;;;;;;;;;;16.30;99.90;;;;;;5041172;28;19968;-76
2022/06/05 03:13:17;;;;;;;;;;;16.20;99.90;;;;;;5047976;28;19935;-76
2022/06/05 03:15:44;;;;;;;;;;;16.30;99.90;;;;;;5026501;28;19921;-76
2022/06/05 03:18:12;;;;;;;;;;;16.20;99.90;;;;;;5051539;28;19924;-77
2022/06/05 03:20:43;;;;;;;;;;;16.30;99.90;;;;;;5049607;28;20087;-77
2022/06/05 03:23:11;;;;;;;;;;;16.30;99.90;;;;;;5023159;28;19921;-78
2022/06/05 03:25:39;;;;;;;;;;;16.30;99.90;;;;;;5032206;28;19920;-76
2022/06/05 03:28:07;;;;;;;;;;;16.30;99.90;;;;;;5023529;28;20696;-77
2022/06/05 03:30:33;;;;;;;;;;;16.30;99.90;;;;;;5026286;28;19920;-76
2022/06/05 03:33:00;;;;;;;;;;;16.40;99.90;;;;;;5032633;28;19928;-77
2022/06/05 03:35:27;;;;;;;;;;;16.40;99.90;;;;;;5024924;28;19920;-77
2022/06/05 03:37:56;;;;;;;;;;;16.40;99.90;;;;;;5030043;28;19920;-79
2022/06/05 03:40:23;;;;;;;;;;;16.40;99.90;;;;;;5057654;28;19921;-78
2022/06/05 03:42:50;;;;;;;;;;;16.40;99.90;;;;;;5050473;28;19936;-78
2022/06/05 03:45:18;;;;;;;;;;;16.40;99.90;;;;;;5038844;28;19929;-78
2022/06/05 03:47:45;;;;;;;;;;;16.40;99.90;;;;;;5036754;28;19932;-78
2022/06/05 03:50:13;;;;;;;;;;;16.50;99.90;;;;;;5035234;28;19979;-78
2022/06/05 03:52:41;;;;;;;;;;;16.50;99.90;;;;;;5036006;28;19990;-78
2022/06/05 03:55:10;;;;;;;;;;;16.50;99.90;;;;;;5047959;28;19924;-78
2022/06/05 03:57:37;;;;;;;;;;;16.50;99.90;;;;;;5030324;28;19972;-78
2022/06/05 04:00:04;;;;;;;;;;;16.60;99.90;;;;;;5031128;28;19925;-79
2022/06/05 04:02:39;;;;;;;;;;;16.60;99.90;;;;;;5036991;28;20031;-78
2022/06/05 04:05:07;;;;;;;;;;;16.70;99.90;;;;;;5033480;28;19929;-78
2022/06/05 04:07:34;;;;;;;;;;;16.70;99.90;;;;;;5052805;28;19925;-78
2022/06/05 04:10:00;;;;;;;;;;;16.80;99.90;;;;;;5039028;28;20338;-78
2022/06/05 04:12:29;;;;;;;;;;;16.80;99.90;;;;;;5037691;28;19924;-78
2022/06/05 04:14:55;;;;;;;;;;;16.80;99.90;;;;;;5033275;28;19921;-78
2022/06/05 04:17:22;;;;;;;;;;;16.90;99.90;;;;;;5027090;28;19932;-77
2022/06/05 04:19:49;;;;;;;;;;;16.90;99.90;;;;;;5037138;28;19921;-78
2022/06/05 04:22:16;;;;;;;;;;;16.90;99.90;;;;;;5054039;28;19929;-76
2022/06/05 04:24:43;;;;;;;;;;;17.00;99.90;;;;;;5031038;28;19921;-78
2022/06/05 04:27:10;;;;;;;;;;;17.00;99.90;;;;;;5047501;28;19975;-77
2022/06/05 04:29:40;;;;;;;;;;;17.00;99.90;;;;;;5034103;28;19947;-77
2022/06/05 04:32:07;;;;;;;;;;;17.10;99.90;;;;;;5050907;28;19924;-78
2022/06/05 04:34:35;;;;;;;;;;;17.20;99.90;;;;;;5036657;28;19960;-78
2022/06/05 04:37:01;;;;;;;;;;;17.20;99.90;;;;;;5035131;28;19932;-78
2022/06/05 04:39:28;;;;;;;;;;;17.20;99.90;;;;;;5035659;28;19924;-78
2022/06/05 04:41:55;;;;;;;;;;;17.30;99.90;;;;;;5051691;28;19920;-78
2022/06/05 04:44:22;;;;;;;;;;;17.30;99.90;;;;;;5034701;28;20678;-78
2022/06/05 04:46:53;;;;;;;;;;;17.40;99.90;;;;;;5034454;28;19925;-78
2022/06/05 04:49:20;;;;;;;;;;;17.40;99.90;;;;;;5035603;28;19921;-78
2022/06/05 04:51:46;;;;;;;;;;;17.50;99.90;;;;;;5034194;28;19928;-78
2022/06/05 04:54:15;;;;;;;;;;;17.50;99.90;;;;;;5034900;28;19924;-78
2022/06/05 04:56:42;;;;;;;;;;;19.20;99.90;;;;;;5042243;28;19933;-78
2022/06/05 04:59:09;;;;;;;;;;;17.60;99.90;;;;;;5031887;28;20265;-78
2022/06/05 05:01:39;;;;;;;;;;;17.60;99.90;;;;;;5035390;28;19924;-77
2022/06/05 05:04:08;;;;;;;;;;;17.60;99.90;;;;;;5023949;28;19921;-78
2022/06/05 05:06:35;;;;;;;;;;;17.70;99.90;;;;;;5040811;28;19925;-78
2022/06/05 05:09:02;;;;;;;;;;;17.70;99.90;;;;;;5054232;28;19924;-78
2022/06/05 05:11:29;;;;;;;;;;;17.70;99.90;;;;;;5036074;28;19960;-79
2022/06/05 05:13:57;;;;;;;;;;;17.70;99.90;;;;;;5036591;28;19924;-78
2022/06/05 05:16:24;;;;;;;;;;;17.70;99.90;;;;;;5045845;28;19924;-78
2022/06/05 05:18:50;;;;;;;;;;;17.80;99.90;;;;;;5022592;28;20135;-78
2022/06/05 05:21:20;;;;;;;;;;;17.80;99.90;;;;;;5039595;28;19937;-78
2022/06/05 05:23:47;;;;;;;;;;;17.90;99.90;;;;;;5026821;28;19925;-78
2022/06/05 05:26:16;;;;;;;;;;;17.90;99.90;;;;;;5030511;28;19932;-78
2022/06/05 05:28:44;;;;;;;;;;;18.00;99.90;;;;;;5054592;28;19932;-78
2022/06/05 05:31:11;;;;;;;;;;;18.00;99.90;;;;;;5034758;28;20015;-79
2022/06/05 05:33:39;;;;;;;;;;;18.80;99.90;;;;;;5036861;28;19944;-78
2022/06/05 05:36:06;;;;;;;;;;;18.10;99.90;;;;;;5053977;28;19924;-79
2022/06/05 05:38:35;;;;;;;;;;;19.50;99.90;;;;;;5017944;28;19925;-77
2022/06/05 05:43:47;;;;;;;;;;;18.20;99.90;;;;;;5026515;28;20388;-76
2022/06/05 05:46:15;;;;;;;;;;;18.40;99.90;;;;;;5032522;28;20031;-79
2022/06/05 05:48:41;;;;;;;;;;;18.40;99.90;;;;;;5034115;28;19927;-79
2022/06/05 05:51:11;;;;;;;;;;;18.40;99.90;;;;;;5024565;28;19974;-79
2022/06/05 05:53:39;;;;;;;;;;;18.70;99.90;;;;;;5019490;28;19925;-78
2022/06/05 05:56:06;;;;;;;;;;;18.80;99.90;;;;;;5017406;28;19921;-75
2022/06/05 05:58:33;;;;;;;;;;;19.00;99.90;;;;;;5048065;28;20296;-77
2022/06/05 06:01:01;;;;;;;;;;;19.20;99.90;;;;;;5029967;28;19963;-78
2022/06/05 06:03:28;;;;;;;;;;;19.30;99.90;;;;;;5030634;28;19983;-76
2022/06/05 06:05:56;;;;;;;;;;;19.50;99.90;;;;;;5049860;28;19920;-76
2022/06/05 06:08:23;;;;;;;;;;;19.50;99.90;;;;;;5043773;28;19924;-77
2022/06/05 06:10:52;;;;;;;;;;;19.60;99.90;;;;;;5028375;28;19947;-77
2022/06/05 06:13:19;;;;;;;;;;;19.70;99.90;;;;;;5032938;28;19930;-76
2022/06/05 06:15:46;;;;;;;;;;;19.70;99.90;;;;;;5015683;28;19925;-76
2022/06/05 06:18:14;;;;;;;;;;;19.80;99.90;;;;;;5035316;28;20466;-77
2022/06/05 06:20:43;;;;;;;;;;;19.80;99.90;;;;;;5034400;28;19920;-77
2022/06/05 06:23:10;;;;;;;;;;;19.90;99.90;;;;;;5047394;28;19921;-76
2022/06/05 06:25:37;;;;;;;;;;;19.90;99.90;;;;;;5025420;28;19929;-76
2022/06/05 06:28:06;;;;;;;;;;;19.90;99.90;;;;;;5028597;28;19946;-76
2022/06/05 06:30:33;;;;;;;;;;;19.90;99.90;;;;;;5036843;28;19925;-77
2022/06/05 06:33:01;;;;;;;;;;;19.90;99.90;;;;;;5039686;28;19921;-77
2022/06/05 06:35:28;;;;;;;;;;;19.90;99.90;;;;;;5049569;28;19920;-77
2022/06/05 06:37:55;;;;;;;;;;;19.90;99.90;;;;;;5032182;28;20014;-77
2022/06/05 06:40:22;;;;;;;;;;;19.90;99.90;;;;;;5032554;28;19944;-77
2022/06/05 06:42:50;;;;;;;;;;;19.90;99.90;;;;;;5034166;28;19920;-77
2022/06/05 06:45:21;;;;;;;;;;;20.00;99.90;;;;;;5023666;28;19925;-77
2022/06/05 06:47:48;;;;;;;;;;;20.00;99.90;;;;;;5036607;28;20007;-78
2022/06/05 06:50:15;;;;;;;;;;;20.10;99.90;;;;;;5024231;28;19932;-77
2022/06/05 06:52:42;;;;;;;;;;;20.10;99.90;;;;;;5027868;28;20530;-78
2022/06/05 06:55:18;;;;;;;;;;;20.10;99.90;;;;;;5031400;28;20363;-78
2022/06/05 06:57:46;;;;;;;;;;;20.20;99.90;;;;;;5043307;28;20366;-78
2022/06/05 07:00:14;;;;;;;;;;;20.30;99.90;;;;;;5049141;28;19929;-78
2022/06/05 07:02:47;;;;;;;;;;;20.40;99.90;;;;;;5035525;28;19991;-79
2022/06/05 07:05:16;;;;;;;;;;;20.50;99.90;;;;;;5036231;28;19963;-78
2022/06/05 07:07:42;;;;;;;;;;;20.70;99.90;;;;;;5046455;28;19975;-78
2022/06/05 07:10:11;;;;;;;;;;;21.00;99.90;;;;;;5013219;28;19925;-77
2022/06/05 07:12:38;;;;;;;;;;;21.00;99.90;;;;;;5021457;28;20372;-77
2022/06/05 07:15:06;;;;;;;;;;;21.00;99.90;;;;;;5048882;28;19920;-78
2022/06/05 07:17:39;;;;;;;;;;;21.10;99.90;;;;;;5037779;28;19964;-80
2022/06/05 07:20:08;;;;;;;;;;;21.00;99.90;;;;;;5039934;28;19928;-80
2022/06/05 07:22:36;;;;;;;;;;;21.00;99.90;;;;;;5039303;28;19909;-78
2022/06/05 07:25:04;;;;;;;;;;;20.90;99.90;;;;;;5036905;28;19951;-79
2022/06/05 07:27:31;;;;;;;;;;;20.90;99.90;;;;;;5038873;28;19952;-80
2022/06/05 07:29:58;;;;;;;;;;;20.90;99.90;;;;;;5038110;28;20331;-78
2022/06/05 07:32:25;;;;;;;;;;;21.00;99.90;;;;;;5050717;28;19962;-80
2022/06/05 07:34:52;;;;;;;;;;;21.00;99.90;;;;;;5034536;28;20273;-80
2022/06/05 07:37:20;;;;;;;;;;;21.10;99.90;;;;;;5054781;28;19921;-80
2022/06/05 07:39:47;;;;;;;;;;;21.40;99.90;;;;;;5044343;28;20236;-80
2022/06/05 07:42:14;;;;;;;;;;;21.80;99.90;;;;;;5034857;28;20199;-81
2022/06/05 07:44:41;;;;;;;;;;;22.30;99.90;;;;;;5027493;28;20077;-80
2022/06/05 07:47:09;;;;;;;;;;;22.80;99.90;;;;;;5040992;28;20396;-80
2022/06/05 07:49:38;;;;;;;;;;;23.30;99.90;;;;;;5058514;28;19924;-81
2022/06/05 07:54:53;;;;;;;;;;;24.30;99.90;;;;;;5008738;28;19917;-80
2022/06/05 07:57:20;;;;;;;;;;;24.60;99.90;;;;;;5048869;28;19945;-80
2022/06/05 07:59:48;;;;;;;;;;;24.80;99.90;;;;;;5035981;28;19932;-81
2022/06/05 08:02:16;;;;;;;;;;;25.10;99.90;;;;;;5037970;28;19998;-81
2022/06/05 08:04:47;;;;;;;;;;;25.40;99.90;;;;;;5060234;28;19990;-81
2022/06/05 08:07:16;;;;;;;;;;;25.60;99.90;;;;;;5035153;28;19920;-80
2022/06/05 08:09:43;;;;;;;;;;;25.60;99.90;;;;;;5044394;28;19924;-80
2022/06/05 08:12:12;;;;;;;;;;;25.60;99.90;;;;;;5039217;28;19928;-80
2022/06/05 08:14:41;;;;;;;;;;;25.60;99.90;;;;;;5033415;28;19921;-80
2022/06/05 08:17:09;;;;;;;;;;;25.60;99.90;;;;;;5039637;28;19921;-80
2022/06/05 08:19:40;;;;;;;;;;;25.50;99.90;;;;;;5040943;28;20023;-80
2022/06/05 08:22:07;;;;;;;;;;;25.50;99.90;;;;;;5041715;28;20430;-81
2022/06/05 08:24:34;;;;;;;;;;;25.40;99.90;;;;;;5048515;28;20349;-78
2022/06/05 08:27:01;;;;;;;;;;;25.50;99.90;;;;;;5033615;28;19925;-77
2022/06/05 08:29:30;;;;;;;;;;;25.60;99.90;;;;;;5027296;28;20007;-78
2022/06/05 08:31:57;;;;;;;;;;;25.80;99.90;;;;;;5028704;28;19947;-78
2022/06/05 08:34:25;;;;;;;;;;;25.90;99.90;;;;;;5050123;28;20392;-78
2022/06/05 08:41:26;;;;;;;;;;;26.10;99.90;;;;;;5024239;28;19925;-79
2022/06/05 08:42:29;;;;;;;;;;;26.80;99.90;;;;;;5037447;28;19920;-78
2022/06/05 08:44:59;;;;;;;;;;;27.50;99.90;;;;;;5038919;28;19927;-78
2022/06/05 08:47:29;;;;;;;;;;;27.50;99.90;;;;;;5053841;28;19982;-78
2022/06/05 08:50:03;;;;;;;;;;;28.20;99.90;;;;;;5043432;28;20724;-79
2022/06/05 08:52:33;;;;;;;;;;;28.20;99.90;;;;;;5041444;28;19978;-79
2022/06/05 08:55:03;;;;;;;;;;;28.50;99.90;;;;;;5048352;28;19995;-78
2022/06/05 08:57:33;;;;;;;;;;;28.20;99.00;;;;;;5045832;28;19925;-78
2022/06/05 09:00:06;;;;;;;;;;;28.10;99.30;;;;;;5050733;28;19924;-78
2022/06/05 09:02:42;;;;;;;;;;;27.70;99.30;;;;;;5038900;28;20019;-78
2022/06/05 09:05:13;;;;;;;;;;;27.50;99.90;;;;;;5049007;28;19929;-79
2022/06/05 09:07:43;;;;;;;;;;;27.40;99.90;;;;;;5052686;28;19948;-78
2022/06/05 09:10:15;;;;;;;;;;;27.10;99.90;;;;;;5033028;28;20357;-80
2022/06/05 09:12:47;;;;;;;;;;;27.10;99.90;;;;;;5056965;28;20540;-81
2022/06/05 09:15:21;;;;;;;;;;;27.10;99.90;;;;;;5031195;28;19925;-82
2022/06/05 09:17:53;;;;;;;;;;;27.00;99.90;;;;;;5041431;28;19935;-82
2022/06/05 09:20:27;;;;;;;;;;;26.80;99.90;;;;;;5038758;28;19959;-80
2022/06/05 09:22:59;;;;;;;;;;;26.80;99.90;;;;;;5055987;28;19971;-82
2022/06/05 09:25:39;;;;;;;;;;;26.70;99.90;;;;;;5055215;28;20459;-78
2022/06/05 09:28:14;;;;;;;;;;;26.00;99.90;;;;;;5036484;28;19936;-79
2022/06/05 09:30:49;;;;;;;;;;;25.80;99.90;;;;;;5037830;28;19928;-78
2022/06/05 09:33:19;;;;;;;;;;;25.70;99.90;;;;;;5053575;28;19927;-78
2022/06/05 09:35:49;;;;;;;;;;;25.30;99.90;;;;;;5039796;28;20518;-78
2022/06/05 09:38:19;;;;;;;;;;;24.70;99.90;;;;;;5053839;28;20008;-78
2022/06/05 09:40:50;;;;;;;;;;;24.40;99.90;;;;;;5035838;28;19939;-79
2022/06/05 09:43:24;;;;;;;;;;;24.00;99.90;;;;;;5039067;28;19921;-79
2022/06/05 09:46:02;;;;;;;;;;;24.00;99.90;;;;;;5055315;28;19921;-79
2022/06/05 09:48:33;;;;;;;;;;;23.70;99.90;;;;;;5057242;28;19947;-78
2022/06/05 09:51:01;;;;;;;;;;;23.50;99.90;;;;;;5039128;28;19921;-79
2022/06/05 09:53:30;;;;;;;;;;;23.30;99.90;;;;;;5038158;28;19925;-79
2022/06/05 09:56:01;;;;;;;;;;;23.20;99.90;;;;;;5035236;28;19921;-77
2022/06/05 09:58:39;;;;;;;;;;;22.50;99.90;;;;;;5034209;28;19924;-77
2022/06/05 10:01:21;;;;;;;;;;;22.90;99.90;;;;;;5035713;28;19924;-77
2022/06/05 10:03:50;;;;;;;;;;;22.70;99.90;;;;;;5038997;28;20376;-78
2022/06/05 10:06:21;;;;;;;;;;;22.60;99.90;;;;;;5036847;28;20378;-78
2022/06/05 10:08:50;;;;;;;;;;;22.50;99.90;;;;;;5036932;28;20271;-77
2022/06/05 10:11:23;;;;;;;;;;;22.40;99.90;;;;;;5035738;28;19925;-78
2022/06/05 10:13:53;;;;;;;;;;;22.10;99.90;;;;;;5050110;28;19920;-78
2022/06/05 10:16:25;;;;;;;;;;;21.90;99.90;;;;;;5033241;28;19929;-79
2022/06/05 10:18:57;;;;;;;;;;;21.70;99.90;;;;;;5033048;28;20008;-78
2022/06/05 10:21:32;;;;;;;;;;;21.70;99.90;;;;;;5016523;28;19921;-78
2022/06/05 10:24:06;;;;;;;;;;;21.80;99.90;;;;;;5056533;28;20382;-78
2022/06/05 10:26:46;;;;;;;;;;;22.20;99.90;;;;;;5032379;28;19983;-77
2022/06/05 10:29:18;;;;;;;;;;;22.40;99.90;;;;;;5045154;28;20622;-83
2022/06/05 10:31:53;;;;;;;;;;;22.50;99.90;;;;;;5040040;28;20693;-81
2022/06/05 10:34:24;;;;;;;;;;;22.70;99.90;;;;;;5045910;28;19924;-79
2022/06/05 10:36:55;;;;;;;;;;;22.50;99.90;;;;;;5039036;28;19920;-79
2022/06/05 10:39:24;;;;;;;;;;;22.90;99.90;;;;;;5026937;28;19924;-80
2022/06/05 10:42:03;;;;;;;;;;;22.90;99.90;;;;;;5034380;28;19943;-80
2022/06/05 10:44:33;;;;;;;;;;;22.90;99.90;;;;;;5035313;28;19929;-79
2022/06/05 10:47:08;;;;;;;;;;;22.70;99.90;;;;;;5056243;28;19928;-80
2022/06/05 10:49:46;;;;;;;;;;;23.30;99.90;;;;;;5050893;28;19925;-80
2022/06/05 10:52:18;;;;;;;;;;;23.30;99.90;;;;;;5034731;28;19932;-80
2022/06/05 10:54:48;;;;;;;;;;;23.30;99.90;;;;;;5038041;28;19933;-78
2022/06/05 10:57:18;;;;;;;;;;;23.20;99.90;;;;;;5032167;28;19921;-78
2022/06/05 10:59:50;;;;;;;;;;;23.10;99.90;;;;;;5033877;28;19935;-79
2022/06/05 11:02:42;;;;;;;;;;;23.10;99.90;;;;;;5030481;28;19971;-79
2022/06/05 11:05:23;;;;;;;;;;;23.10;99.90;;;;;;5048097;28;19970;-79
2022/06/05 11:07:54;;;;;;;;;;;23.10;99.90;;;;;;5035236;28;19929;-79
2022/06/05 11:13:39;;;;;;;;;;;22.80;99.90;;;;;;5035361;28;20051;-78
2022/06/05 11:13:42;;;;;;;;;;;22.80;99.90;;;;;;5045495;28;19924;-79
2022/06/05 11:16:17;;;;;;;;;;;22.70;99.90;;;;;;5037837;28;19956;-79
2022/06/05 11:18:49;;;;;;;;;;;22.70;99.90;;;;;;5030839;28;19925;-79
2022/06/05 11:21:18;;;;;;;;;;;22.70;99.90;;;;;;5050490;28;19988;-79
2022/06/05 11:23:48;;;;;;;;;;;22.70;99.90;;;;;;5040665;28;19995;-80
2022/06/05 11:26:21;;;;;;;;;;;22.30;99.90;;;;;;5043527;28;19921;-78
2022/06/05 11:28:53;;;;;;;;;;;22.10;99.90;;;;;;5040246;28;19932;-79
2022/06/05 11:31:27;;;;;;;;;;;22.10;99.90;;;;;;5039235;28;19990;-78
2022/06/05 11:33:57;;;;;;;;;;;21.90;99.90;;;;;;5038712;28;19927;-78
2022/06/05 11:36:25;;;;;;;;;;;21.90;99.90;;;;;;5038163;28;19980;-78
2022/06/05 11:39:03;;;;;;;;;;;21.80;99.90;;;;;;5038930;28;19931;-78
2022/06/05 11:41:36;;;;;;;;;;;21.80;99.90;;;;;;5050089;28;19920;-79
2022/06/05 11:44:16;;;;;;;;;;;21.70;99.90;;;;;;5039093;28;19927;-78
2022/06/05 11:46:47;;;;;;;;;;;21.60;99.90;;;;;;5030271;28;19921;-78
2022/06/05 11:49:19;;;;;;;;;;;21.70;99.90;;;;;;5040916;28;19932;-77
2022/06/05 11:51:58;;;;;;;;;;;21.80;99.90;;;;;;5058559;28;20011;-77
2022/06/05 11:54:26;;;;;;;;;;;21.90;99.90;;;;;;5052060;28;19953;-76
2022/06/05 11:56:58;;;;;;;;;;;22.10;99.90;;;;;;5037905;28;19974;-77
2022/06/05 11:59:32;;;;;;;;;;;22.30;99.90;;;;;;5039049;28;19956;-76
2022/06/05 12:02:01;;;;;;;;;;;22.60;99.90;;;;;;5037842;28;19931;-77
2022/06/05 12:04:34;;;;;;;;;;;23.10;99.90;;;;;;5040163;28;19970;-80
2022/06/05 12:07:04;;;;;;;;;;;23.60;99.90;;;;;;5035059;28;19936;-80
2022/06/05 12:09:34;;;;;;;;;;;24.20;99.90;;;;;;5039207;28;19924;-80
2022/06/05 12:12:06;;;;;;;;;;;24.70;99.90;;;;;;5050726;28;19971;-80
2022/06/05 12:14:34;;;;;;;;;;;25.20;99.90;;;;;;5029049;28;20303;-80
2022/06/05 12:17:05;;;;;;;;;;;25.50;99.90;;;;;;5054041;28;20019;-80
2022/06/05 12:19:38;;;;;;;;;;;25.70;99.90;;;;;;5037587;28;19924;-80
2022/06/05 12:22:10;;;;;;;;;;;25.60;99.90;;;;;;5035184;28;19932;-81
2022/06/05 12:24:43;;;;;;;;;;;25.50;99.90;;;;;;5029963;28;19925;-79
2022/06/05 12:27:13;;;;;;;;;;;25.60;99.90;;;;;;5038273;28;19920;-76
2022/06/05 12:29:44;;;;;;;;;;;25.70;99.90;;;;;;5030913;28;19927;-77
2022/06/05 12:32:15;;;;;;;;;;;25.90;99.90;;;;;;5034277;28;19931;-77
2022/06/05 12:34:46;;;;;;;;;;;25.90;99.90;;;;;;5037416;28;19928;-76
2022/06/05 12:37:17;;;;;;;;;;;26.20;99.90;;;;;;5047412;28;20372;-77
2022/06/05 12:39:46;;;;;;;;;;;26.50;99.90;;;;;;5037252;28;19925;-78
2022/06/05 12:42:27;;;;;;;;;;;26.80;99.90;;;;;;5039189;28;19925;-78
2022/06/05 12:44:55;;;;;;;;;;;26.70;99.90;;;;;;5036928;28;19928;-78
2022/06/05 12:47:43;;;;;;;;;;;26.40;99.90;;;;;;5052764;28;19925;-78
2022/06/05 12:50:19;;;;;;;;;;;26.00;99.90;;;;;;5006158;28;19948;-77
2022/06/05 12:52:53;;;;;;;;;;;26.00;99.90;;;;;;5028367;28;19986;-77
2022/06/05 12:55:23;;;;;;;;;;;26.30;99.90;;;;;;5030668;28;19931;-78
2022/06/05 12:57:53;;;;;;;;;;;26.20;99.90;;;;;;5045514;28;20403;-78
2022/06/05 13:00:36;;;;;;;;;;;25.40;99.90;;;;;;5037810;28;20031;-78
2022/06/05 13:03:10;;;;;;;;;;;25.30;99.90;;;;;;5056495;28;20597;-80
2022/06/05 13:05:40;;;;;;;;;;;25.30;99.90;;;;;;5034315;28;19925;-77
2022/06/05 13:08:09;;;;;;;;;;;25.40;99.90;;;;;;5032590;28;19921;-77
2022/06/05 13:10:38;;;;;;;;;;;25.50;99.90;;;;;;5028565;28;20643;-77
2022/06/05 13:13:10;;;;;;;;;;;25.80;99.90;;;;;;5028372;28;20300;-78
2022/06/05 13:15:40;;;;;;;;;;;25.90;99.90;;;;;;5026536;28;19920;-77
2022/06/05 13:18:13;;;;;;;;;;;26.20;99.90;;;;;;5034384;28;20031;-78
2022/06/05 13:20:52;;;;;;;;;;;26.50;99.90;;;;;;5052659;28;19931;-77
2022/06/05 13:23:22;;;;;;;;;;;26.60;99.90;;;;;;5032365;28;19975;-78
2022/06/05 13:25:55;;;;;;;;;;;27.20;99.90;;;;;;5062957;28;20509;-83
2022/06/05 13:28:28;;;;;;;;;;;27.30;99.90;;;;;;5051234;28;19924;-79
2022/06/05 13:31:02;;;;;;;;;;;27.20;99.90;;;;;;5036224;28;19971;-82
2022/06/05 13:33:32;;;;;;;;;;;27.00;99.90;;;;;;5039040;28;20300;-82
2022/06/05 13:36:04;;;;;;;;;;;26.30;99.90;;;;;;5056060;28;20434;-82
2022/06/05 13:38:32;;;;;;;;;;;26.30;99.90;;;;;;5029894;28;20339;-79
2022/06/05 13:41:02;;;;;;;;;;;26.10;99.90;;;;;;5036293;28;19975;-84
2022/06/05 13:43:40;;;;;;;;;;;26.10;99.90;;;;;;5033823;28;19920;-81
2022/06/05 13:46:16;;;;;;;;;;;26.00;99.90;;;;;;5031358;28;20315;-83
2022/06/05 13:48:51;;;;;;;;;;;25.90;99.90;;;;;;5032877;28;20015;-83
2022/06/05 13:51:25;;;;;;;;;;;25.80;99.90;;;;;;5047804;28;19921;-83
2022/06/05 13:53:58;;;;;;;;;;;25.40;99.90;;;;;;5035819;28;20662;-84
2022/06/05 13:56:30;;;;;;;;;;;25.30;99.90;;;;;;5049807;28;19960;-84
2022/06/05 13:59:01;;;;;;;;;;;25.00;99.90;;;;;;5034728;28;20347;-84
2022/06/05 14:01:34;;;;;;;;;;;24.60;99.90;;;;;;5030877;28;19921;-84
2022/06/05 14:04:14;;;;;;;;;;;24.50;99.90;;;;;;5051251;28;20844;-82
2022/06/05 14:06:54;;;;;;;;;;;24.40;99.90;;;;;;5032712;28;19928;-83
2022/06/05 14:09:34;;;;;;;;;;;24.40;99.90;;;;;;5028303;28;20612;-83
2022/06/05 14:12:04;;;;;;;;;;;24.50;99.90;;;;;;5028548;28;19929;-82
2022/06/05 14:14:37;;;;;;;;;;;24.60;99.90;;;;;;5033014;28;19936;-82
2022/06/05 14:17:06;;;;;;;;;;;24.60;99.90;;;;;;5045356;28;19928;-82
2022/06/05 14:19:36;;;;;;;;;;;23.20;99.90;;;;;;5026178;28;19951;-82
2022/06/05 14:22:06;;;;;;;;;;;24.30;99.90;;;;;;5040462;28;19950;-83
2022/06/05 14:24:38;;;;;;;;;;;24.00;99.90;;;;;;5033575;28;19969;-83
2022/06/05 14:27:07;;;;;;;;;;;23.30;99.90;;;;;;5035128;28;19978;-83
2022/06/05 14:29:38;;;;;;;;;;;23.30;99.90;;;;;;5034409;28;20404;-84
2022/06/05 14:32:08;;;;;;;;;;;23.20;99.90;;;;;;5030836;28;19924;-83
2022/06/05 14:34:37;;;;;;;;;;;23.10;99.90;;;;;;5031043;28;20357;-84
2022/06/05 14:37:36;;;;;;;;;;;23.00;99.90;;;;;;5048641;28;19920;-84
2022/06/05 14:46:57;;;;;;;;;;;22.50;99.90;;;;;;4963717;28;19957;-84
2022/06/05 14:49:45;;;;;;;;;;;22.40;99.90;;;;;;4906812;28;19930;-84